createdAt,value
2019-01-10T00:03:43.817Z,1.7
2019-01-10T00:18:36.037Z,1.4
2019-01-10T00:34:08.785Z,1.5
2019-01-10T00:48:52.222Z,1.6
2019-01-10T01:03:23.972Z,1.8
2019-01-10T01:18:59.413Z,1.6
2019-01-10T01:33:48.151Z,1.5
2019-01-10T01:48:31.002Z,1.8
2019-01-10T02:04:10.405Z,1.5
2019-01-10T02:18:43.573Z,1.5
2019-01-10T02:34:09.797Z,1.5
2019-01-10T02:49:05.363Z,1.6
2019-01-10T03:03:49.475Z,1.3
2019-01-10T03:18:38.233Z,1.6
2019-01-10T03:34:13.175Z,1.6
2019-01-10T03:48:32.418Z,1.5
2019-01-10T04:04:03.830Z,1.4
2019-01-10T04:18:58.111Z,1.3
2019-01-10T04:34:14.450Z,1.5
2019-01-10T04:48:36.164Z,1.4
2019-01-10T05:04:01.856Z,1.3
2019-01-10T05:19:02.193Z,1.4
2019-01-10T05:33:37.468Z,1.5
2019-01-10T05:49:14.605Z,1.3
2019-01-10T06:03:53.365Z,1.6
2019-01-10T06:19:26.517Z,1.4
2019-01-10T06:19:27.006Z,1.4
2019-01-10T06:33:39.368Z,1.5
2019-01-10T06:48:42.749Z,1.5
2019-01-10T07:04:03.665Z,1.8
2019-01-10T07:18:28.186Z,1.5
2019-01-10T07:33:57.586Z,1.6
2019-01-10T07:48:30.493Z,1.5
2019-01-10T08:04:12.521Z,1.5
2019-01-10T08:19:20.537Z,3.1
2019-01-10T08:33:30.815Z,2.9
2019-01-10T08:48:47.473Z,2.5
2019-01-10T09:04:14.703Z,2.3
2019-01-10T09:18:55.964Z,2.4
2019-01-10T09:25:14.596Z,2.4
2019-01-10T09:34:14.235Z,2.4
2019-01-10T09:48:44.106Z,2.5
2019-01-10T09:51:18.610Z,2.5
2019-01-10T10:01:50.006Z,2.5
2019-01-10T10:03:43.238Z,2.5
2019-01-10T10:18:43.246Z,2
2019-01-10T10:33:46.674Z,2.4
2019-01-10T10:48:41.899Z,2.2
2019-01-10T10:53:28.272Z,2.2
2019-01-10T11:04:21.131Z,2.6
2019-01-10T11:19:19.640Z,2.4
2019-01-10T11:34:11.063Z,2.6
2019-01-10T11:48:59.636Z,2.4
2019-01-10T12:03:47.318Z,2.5
2019-01-10T12:18:43.800Z,2
2019-01-10T12:34:29.363Z,7.1
2019-01-10T12:49:23.759Z,5.5
2019-01-10T13:04:10.084Z,5.5
2019-01-10T13:18:49.573Z,4.9
2019-01-10T13:33:59.784Z,5
2019-01-10T13:48:53.969Z,5
2019-01-10T14:04:17.136Z,4.4
2019-01-10T14:19:19.557Z,4.2
2019-01-10T14:34:23.101Z,4.1
2019-01-10T14:39:11.295Z,4.1
2019-01-10T14:49:17.268Z,4.3
2019-01-10T15:04:02.184Z,4.5
2019-01-10T15:18:59.709Z,4.6
2019-01-10T15:33:59.106Z,4.3
2019-01-10T15:49:03.617Z,3.8
2019-01-10T16:03:55.938Z,3.6
2019-01-10T16:18:51.581Z,3.2
2019-01-10T16:28:19.463Z,3.2
2019-01-10T16:34:21.993Z,3.4
2019-01-10T16:49:41.634Z,3.2
2019-01-10T17:03:52.290Z,3
2019-01-10T17:19:33.933Z,2.8
2019-01-10T17:34:32.488Z,2.6
2019-01-10T17:49:26.950Z,3
2019-01-10T18:04:41.879Z,2.9
2019-01-10T18:19:53.828Z,2.5
2019-01-10T18:34:12.607Z,2.7
2019-01-10T18:49:23.181Z,3.2
2019-01-10T19:04:27.917Z,2.7
2019-01-10T19:17:50.933Z,2.7
2019-01-10T19:19:48.107Z,2.7
2019-01-10T19:25:20.303Z,2.7
2019-01-10T19:34:26.065Z,2.6
2019-01-10T19:49:25.938Z,2.5
2019-01-10T20:04:04.096Z,2.9
2019-01-10T20:19:41.241Z,2.7
2019-01-10T20:34:02.004Z,2.8
2019-01-10T20:49:13.120Z,3
2019-01-10T21:04:09.351Z,2.6
2019-01-10T21:19:40.015Z,2.5
2019-01-10T21:34:48.960Z,2.4
2019-01-10T21:49:23.150Z,2.4
2019-01-10T22:04:45.542Z,2.4
2019-01-10T22:19:08.368Z,2.7
2019-01-10T22:34:21.478Z,2.4
2019-01-10T22:49:44.068Z,2.5
2019-01-10T23:04:57.268Z,2.3
2019-01-10T23:19:50.377Z,2.5
2019-01-10T23:34:56.916Z,2.2
2019-01-10T23:49:11.867Z,2.2
